Time;durP1;ratioP1;P1;durP2;ratioP2;P2;SDS_P1;SDS_P2;PMS_P1;PMS_P2;Temp;Humidity;BMP_temperature;BMP_pressure;BME280_temperature;BME280_humidity;BME280_pressure;Samples;Min_cycle;Max_cycle;Signal;HPM_P1;HPM_P2
2022/05/29 00:01:13;;;;;;;2.60;1.10;;;11.30;96.50;;;10.82;71.31;96970.47;4998805;28;20038;-43
2022/05/29 00:03:39;;;;;;;2.58;1.00;;;11.30;96.70;;;10.80;72.02;96972.34;4993559;28;20038;-44
2022/05/29 00:06:05;;;;;;;4.35;1.10;;;11.30;96.90;;;10.79;72.44;96967.13;5003965;28;20030;-43
2022/05/29 00:08:35;;;;;;;3.28;1.10;;;11.20;97.20;;;10.74;72.85;96950.63;5004933;28;20121;-45
2022/05/29 00:11:01;;;;;;;3.58;1.10;;;11.30;97.30;;;10.79;72.24;96965.34;5008105;28;20033;-43
2022/05/29 00:13:28;;;;;;;4.20;1.13;;;11.20;97.20;;;10.79;72.31;96962.69;5011854;28;20030;-44
2022/05/29 00:15:54;;;;;;;2.92;1.30;;;11.20;97.20;;;10.80;71.86;96963.53;5004665;28;20034;-44
2022/05/29 00:18:20;;;;;;;1.52;0.95;;;11.20;97.20;;;10.77;72.21;96954.00;5009384;28;20084;-42
2022/05/29 00:20:53;;;;;;;3.40;1.20;;;11.20;97.30;;;10.77;73.35;96955.78;5006103;28;20021;-43
2022/05/29 00:23:19;;;;;;;2.70;1.20;;;11.20;97.70;;;10.79;72.98;96957.41;5000877;28;20204;-43
2022/05/29 00:25:48;;;;;;;3.40;1.20;;;11.20;97.60;;;10.78;73.30;96954.84;5000055;28;20382;-42
2022/05/29 00:28:14;;;;;;;2.58;1.30;;;11.20;97.70;;;10.79;73.29;96952.16;5001290;28;20068;-43
2022/05/29 00:30:40;;;;;;;2.38;1.38;;;11.20;97.80;;;10.79;73.23;96960.06;5010465;28;20123;-45
2022/05/29 00:33:07;;;;;;;5.18;1.30;;;11.20;97.90;;;10.76;73.13;96943.50;5007996;28;20033;-43
2022/05/29 00:35:33;;;;;;;6.47;1.63;;;11.20;97.80;;;10.80;73.94;96945.06;5011066;28;20029;-43
2022/05/29 00:37:59;;;;;;;2.92;1.30;;;11.20;98.00;;;10.80;74.81;96947.72;5009861;28;20476;-45
2022/05/29 00:40:48;;;;;;;2.58;1.10;;;11.20;98.40;;;10.80;74.99;96945.06;5009071;28;20027;-43
2022/05/29 00:43:14;;;;;;;2.63;1.20;;;11.20;98.50;;;10.64;75.88;96921.16;5000052;28;20026;-43
2022/05/29 00:45:51;;;;;;;5.32;1.40;;;11.20;98.90;;;10.77;75.94;96945.25;5000330;28;20033;-44
2022/05/29 00:48:19;;;;;;;2.47;1.38;;;11.20;98.90;;;10.78;75.22;96946.94;4998882;28;20064;-45
2022/05/29 00:50:48;;;;;;;2.17;1.13;;;11.20;98.80;;;10.66;75.21;96921.97;5002114;28;20030;-44
2022/05/29 00:53:14;;;;;;;3.55;1.60;;;11.20;98.70;;;10.81;74.80;96942.38;5006178;28;20033;-43
2022/05/29 00:55:55;;;;;;;2.33;1.40;;;11.20;98.70;;;10.74;75.50;96929.53;5008827;28;20492;-45
2022/05/29 00:58:22;;;;;;;5.60;1.40;;;11.30;99.00;;;10.74;75.02;96919.00;5004928;28;20069;-43
2022/05/29 01:00:51;;;;;;;4.57;1.10;;;11.30;98.80;;;10.85;74.81;96925.47;5008679;28;20034;-43
2022/05/29 01:03:17;;;;;;;2.85;1.23;;;11.30;98.80;;;10.83;74.86;96934.41;5005256;28;20303;-43
2022/05/29 01:05:42;;;;;;;2.92;1.23;;;11.30;98.90;;;10.80;76.57;96929.25;5006863;28;20042;-44
2022/05/29 01:08:20;;;;;;;2.53;1.30;;;11.20;99.30;;;10.79;77.03;96923.13;5010838;28;20087;-43
2022/05/29 01:11:20;;;;;;;3.35;1.38;;;11.20;99.60;;;10.76;75.91;96917.13;5005689;28;20022;-42
2022/05/29 01:13:46;;;;;;;3.25;1.23;;;11.20;99.40;;;10.73;75.64;96923.41;5003701;28;20030;-43
2022/05/29 01:16:39;;;;;;;3.65;1.30;;;11.20;99.20;;;10.73;76.44;96918.16;5005642;28;20136;-43
2022/05/29 01:19:32;;;;;;;;;;;11.20;99.50;;;10.69;76.62;96914.78;5004975;28;20490;-42
2022/05/29 01:22:50;;;;;;;2.97;1.27;;;11.20;99.80;;;10.66;75.90;96922.84;5005267;28;19919;-44
2022/05/29 01:25:49;;;;;;;4.53;1.48;;;11.20;99.90;;;10.66;76.73;96911.44;5007426;28;20034;-44
2022/05/29 01:28:38;;;;;;;3.63;1.20;;;11.10;99.50;;;10.65;75.91;96925.53;5004519;28;20568;-43
2022/05/29 01:31:13;;;;;;;3.50;1.38;;;11.10;99.60;;;10.64;76.77;96919.41;5007706;28;20026;-44
2022/05/29 01:33:58;;;;;;;2.85;1.40;;;11.10;99.70;;;10.66;76.63;96912.28;5004560;28;20034;-45
2022/05/29 01:36:53;;;;;;;2.83;1.20;;;11.10;99.90;;;10.63;75.12;96901.00;5004922;28;20088;-44
2022/05/29 01:39:37;;;;;;;3.50;1.30;;;11.10;99.30;;;10.64;74.80;96894.81;5010238;28;20021;-44
2022/05/29 01:42:13;;;;;;;2.65;1.00;;;11.10;99.30;;;10.61;75.92;96895.81;5001857;28;20167;-45
2022/05/29 01:44:52;;;;;;;2.65;1.20;;;11.10;99.70;;;10.62;76.45;96888.75;5005261;28;20116;-44
2022/05/29 01:47:24;;;;;;;1.58;0.98;;;11.10;99.90;;;10.59;77.03;96897.66;5005818;28;20099;-44
2022/05/29 01:49:56;;;;;;;2.75;1.45;;;11.00;99.90;;;10.56;77.31;96886.41;5020836;28;20053;-44
2022/05/29 01:52:35;;;;;;;2.10;1.30;;;11.00;99.90;;;10.50;77.38;96885.75;5003277;28;20049;-42
2022/05/29 01:55:24;;;;;;;3.45;1.15;;;10.90;99.90;;;10.44;77.49;96879.88;5024908;28;20029;-43
2022/05/29 01:57:54;;;;;;;2.45;1.30;;;10.90;99.90;;;10.35;77.16;96881.13;5005566;28;20474;-44
2022/05/29 02:00:23;;;;;;;4.63;1.60;;;10.80;99.90;;;10.29;77.36;96881.41;5006555;28;20034;-43
2022/05/29 02:03:05;;;;;;;3.75;1.40;;;10.80;99.90;;;10.23;77.40;96879.88;5002321;28;20029;-43
2022/05/29 02:05:40;;;;;;;3.25;1.40;;;10.70;99.90;;;10.16;76.93;96872.28;5008945;28;20593;-42
2022/05/29 02:08:13;;;;;;;2.72;1.38;;;10.70;99.90;;;10.11;77.06;96869.88;5005469;28;20034;-42
2022/05/29 02:10:59;;;;;;;1.83;1.10;;;10.60;99.90;;;10.06;77.49;96866.59;5002599;28;20076;-44
2022/05/29 02:13:49;;;;;;;1.90;1.08;;;10.50;99.90;;;10.00;78.28;96858.97;5005786;28;20027;-42
2022/05/29 02:16:40;;;;;;;4.75;1.40;;;10.50;99.90;;;9.93;78.84;96859.22;5005746;28;20017;-43
2022/05/29 02:19:15;;;;;;;4.47;1.45;;;10.50;99.90;;;9.86;79.34;96857.75;5006228;28;20017;-43
2022/05/29 02:22:01;;;;;;;2.70;1.10;;;10.30;99.90;;;9.82;80.16;96858.81;5007421;28;20136;-42
2022/05/29 02:24:41;;;;;;;2.80;1.10;;;10.30;99.90;;;9.78;81.49;96857.25;5005668;28;20052;-43
2022/05/29 02:27:57;;;;;;;3.95;1.60;;;10.30;99.90;;;9.73;81.14;96854.78;5003769;28;20556;-42
2022/05/29 02:30:28;;;;;;;2.28;1.10;;;10.20;99.90;;;9.72;81.09;96855.69;4948967;28;20077;-42
2022/05/29 02:33:23;;;;;;;3.05;1.00;;;10.20;99.90;;;9.74;80.95;96850.38;4940772;28;20066;-45
2022/05/29 02:36:23;;;;;;;1.70;1.20;;;10.20;99.90;;;9.71;81.98;96853.16;4987106;28;20404;-44
2022/05/29 02:39:14;;;;;;;3.22;1.20;;;10.20;99.90;;;9.77;82.73;96852.03;5007817;28;20029;-45
2022/05/29 02:42:21;;;;;;;2.83;1.30;;;10.20;99.90;;;9.71;81.29;96846.09;5002306;28;20120;-43
2022/05/29 02:45:21;;;;;;;3.50;1.30;;;10.20;99.90;;;9.71;80.86;96846.09;5005219;28;20506;-44
2022/05/29 02:48:21;;;;;;;2.55;1.73;;;10.20;99.90;;;9.56;80.11;96820.41;5007144;28;20068;-45
2022/05/29 02:51:19;;;;;;;2.45;1.00;;;10.20;99.90;;;9.72;80.96;96842.53;4980232;28;20050;-46
2022/05/29 02:53:46;;;;;;;3.15;1.20;;;10.20;99.90;;;9.73;81.53;96832.88;5008901;28;20505;-46
2022/05/29 02:56:14;;;;;;;3.22;1.45;;;10.20;99.90;;;9.66;81.54;96820.91;5008019;28;20238;-43
2022/05/29 02:58:43;;;;;;;2.15;1.13;;;10.20;99.90;;;9.72;81.90;96833.78;5010962;28;20060;-46
2022/05/29 03:01:46;;;;;;;2.33;1.33;;;10.20;99.90;;;9.66;81.85;96831.44;5007670;28;20037;-43
2022/05/29 03:04:43;;;;;;;2.72;1.40;;;10.20;99.90;;;9.64;81.89;96825.38;5008852;28;20494;-44
2022/05/29 03:07:28;;;;;;;1.90;0.95;;;10.10;99.90;;;9.54;82.63;96809.94;5008427;28;20293;-47
2022/05/29 03:10:16;;;;;;;3.33;1.38;;;10.10;99.90;;;9.58;82.08;96837.00;5010325;28;20076;-47
2022/05/29 03:12:57;;;;;;;2.40;1.20;;;10.10;99.90;;;9.56;83.05;96838.84;5006902;28;20052;-45
2022/05/29 03:15:48;;;;;;;1.92;1.05;;;10.10;99.90;;;9.59;82.73;96822.94;5009360;28;20040;-43
2022/05/29 03:18:50;;;;;;;4.05;1.40;;;10.10;99.90;;;9.59;83.05;96830.81;5008884;28;20068;-44
2022/05/29 03:21:30;;;;;;;4.90;1.40;;;10.10;99.90;;;9.62;82.66;96824.56;5008784;28;20034;-43
2022/05/29 03:24:38;;;;;;;3.28;1.45;;;10.10;99.90;;;9.61;82.95;96817.59;5008088;28;20026;-45
2022/05/29 03:27:28;;;;;;;4.57;1.60;;;10.10;99.90;;;9.63;82.20;96824.50;5009269;28;20486;-43
2022/05/29 03:30:18;;;;;;;3.42;1.30;;;10.10;99.90;;;9.63;82.76;96813.13;5011680;28;20158;-44
2022/05/29 03:32:44;;;;;;;3.28;1.42;;;10.10;99.90;;;9.58;82.93;96818.56;5012738;28;20068;-45
2022/05/29 03:35:28;;;;;;;5.03;1.40;;;10.10;99.90;;;9.61;83.20;96826.34;5010213;28;20528;-43
2022/05/29 03:37:57;;;;;;;2.70;1.40;;;10.10;99.90;;;9.63;83.47;96823.66;5000743;28;20449;-44
2022/05/29 03:40:26;;;;;;;4.88;1.42;;;10.10;99.90;;;9.65;83.83;96819.19;5011055;28;20057;-44
2022/05/29 03:42:53;;;;;;;3.67;1.50;;;10.10;99.90;;;9.45;83.71;96785.81;5010614;28;20029;-44
2022/05/29 03:45:18;;;;;;;2.67;1.30;;;10.10;99.90;;;9.62;83.20;96819.28;5007850;28;20032;-45
2022/05/29 03:47:44;;;;;;;3.10;1.10;;;10.10;99.90;;;9.60;83.21;96819.38;5010679;28;20038;-47
2022/05/29 03:50:14;;;;;;;2.58;1.25;;;10.10;99.90;;;9.63;83.57;96818.38;5008171;28;20026;-44
2022/05/29 03:52:39;;;;;;;3.97;1.23;;;10.10;99.90;;;9.61;85.07;96815.81;5011069;28;20030;-47
2022/05/29 03:55:07;;;;;;;3.17;1.70;;;10.10;99.90;;;9.51;84.38;96810.09;5006958;28;20367;-47
2022/05/29 03:57:33;;;;;;;4.35;1.48;;;10.00;99.90;;;9.54;84.90;96819.63;5009350;28;20026;-47
2022/05/29 03:59:59;;;;;;;1.83;1.20;;;10.00;99.90;;;9.51;87.40;96817.13;5010556;28;20029;-44
2022/05/29 04:02:24;;;;;;;5.22;1.30;;;10.00;99.90;;;9.52;86.79;96813.56;5010085;28;20038;-43
2022/05/29 04:04:50;;;;;;;6.00;1.67;;;10.00;99.90;;;9.48;87.16;96809.38;5008064;28;20021;-44
2022/05/29 04:07:16;;;;;;;7.45;1.58;;;10.00;99.90;;;9.43;88.27;96813.97;5007013;28;20046;-43
2022/05/29 04:12:26;;;;;;;4.78;1.38;;;9.90;99.90;;;9.42;87.18;96810.50;5008470;28;20036;-44
2022/05/29 04:14:51;;;;;;;4.28;1.20;;;9.90;99.90;;;9.42;87.98;96805.22;5008157;28;20030;-44
2022/05/29 04:17:20;;;;;;;2.72;1.30;;;9.90;99.90;;;9.43;87.44;96804.28;5010690;28;20057;-44
2022/05/29 04:19:46;;;;;;;8.80;1.98;;;9.90;99.90;;;9.43;91.89;96808.72;5005157;28;20113;-45
2022/05/29 04:22:20;;;;;;;4.53;1.70;;;9.90;99.90;;;9.43;91.15;96809.56;5005375;28;20057;-45
2022/05/29 04:24:46;;;;;;;5.07;1.90;;;9.90;99.90;;;9.42;92.88;96813.13;5007474;28;20029;-44
2022/05/29 04:27:14;;;;;;;2.85;1.45;;;9.90;99.90;;;9.34;94.27;96808.16;5009211;28;20030;-44
2022/05/29 04:29:40;;;;;;;3.60;1.88;;;9.90;99.90;;;9.32;94.72;96809.16;5011380;28;20053;-44
2022/05/29 04:34:55;;;;;;;2.65;1.50;;;9.80;99.90;;;9.28;95.43;96816.31;5007266;28;20048;-46
2022/05/29 04:37:22;;;;;;;3.38;1.30;;;9.80;99.90;;;9.26;95.96;96817.28;5009317;28;20036;-46
2022/05/29 04:39:48;;;;;;;2.55;1.40;;;9.70;99.90;;;9.07;97.10;96780.38;5008751;28;20629;-43
2022/05/29 04:42:13;;;;;;;2.42;1.67;;;9.70;99.90;;;9.12;100.00;96810.81;5009245;28;20099;-45
2022/05/29 04:44:39;;;;;;;2.40;1.45;;;9.70;99.90;;;9.04;100.00;96814.66;5007040;28;20041;-45
2022/05/29 04:47:05;;;;;;;4.10;1.83;;;9.50;99.90;;;8.93;100.00;96825.63;5008634;28;20445;-43
2022/05/29 04:49:31;;;;;;;5.72;2.10;;;9.50;99.90;;;8.86;100.00;96817.09;5010176;28;20069;-45
2022/05/29 04:51:57;;;;;;;4.38;2.03;;;9.40;99.90;;;8.79;100.00;96818.25;5009079;28;20496;-43
2022/05/29 04:54:24;;;;;;;6.43;1.88;;;9.30;99.90;;;8.77;100.00;96817.47;5008142;28;20417;-42
2022/05/29 04:56:50;;;;;;;3.10;1.65;;;9.20;99.90;;;8.75;100.00;96809.63;5009003;28;20049;-44
2022/05/29 04:59:15;;;;;;;3.50;2.20;;;9.30;99.90;;;8.74;100.00;96817.59;5010779;28;20037;-44
2022/05/29 05:01:42;;;;;;;4.53;2.00;;;9.20;99.90;;;8.72;100.00;96812.41;5007012;28;20061;-47
2022/05/29 05:04:08;;;;;;;3.35;1.95;;;9.20;99.90;;;8.72;100.00;96803.66;5007737;28;20120;-42
2022/05/29 05:06:34;;;;;;;5.05;1.90;;;9.30;99.90;;;8.80;100.00;96809.47;5009293;28;20033;-44
2022/05/29 05:09:01;;;;;;;5.65;2.03;;;9.30;99.90;;;8.65;100.00;96775.88;5006487;28;20560;-43
2022/05/29 05:11:27;;;;;;;5.30;2.20;;;9.30;99.90;;;8.81;100.00;96808.56;5008856;28;20057;-44
2022/05/29 05:13:52;;;;;;;4.55;2.10;;;9.30;99.90;;;8.85;100.00;96801.41;5003438;28;20041;-43
2022/05/29 05:16:18;;;;;;;3.28;2.13;;;9.30;99.90;;;8.86;100.00;96797.84;5006696;28;20029;-43
2022/05/29 05:18:44;;;;;;;4.43;2.10;;;9.30;99.90;;;8.80;100.00;96798.97;5005074;28;20030;-46
2022/05/29 05:21:10;;;;;;;4.60;2.20;;;9.30;99.90;;;8.77;100.00;96801.69;5010700;28;20036;-42
2022/05/29 05:23:36;;;;;;;7.97;2.15;;;9.30;99.90;;;8.75;100.00;96803.53;5026591;23;20049;-44
2022/05/29 05:26:12;;;;;;;2.55;1.85;;;9.20;99.90;;;8.87;100.00;96799.56;5014161;28;20068;-45
2022/05/29 05:28:38;;;;;;;6.20;2.15;;;9.20;99.90;;;9.29;100.00;96801.38;5014663;28;20206;-43
2022/05/29 05:31:04;;;;;;;3.55;2.20;;;9.40;99.90;;;9.60;100.00;96798.31;5014576;28;20044;-44
2022/05/29 05:33:29;;;;;;;3.65;2.00;;;9.70;99.90;;;9.92;100.00;96803.97;5005599;28;20045;-45
2022/05/29 05:35:56;;;;;;;5.95;2.15;;;10.00;99.90;;;10.04;100.00;96803.41;5009194;28;20041;-44
2022/05/29 05:38:22;;;;;;;4.30;1.92;;;10.20;99.90;;;10.17;100.00;96795.81;5007754;28;20026;-43
2022/05/29 05:40:48;;;;;;;4.72;1.92;;;10.40;99.90;;;10.12;100.00;96798.69;5008543;28;20256;-44
2022/05/29 05:43:14;;;;;;;4.68;1.80;;;10.40;99.90;;;10.40;100.00;96804.50;5003814;28;20559;-43
2022/05/29 05:45:41;;;;;;;5.93;2.10;;;10.60;99.90;;;10.53;100.00;96804.78;5006283;28;20030;-43
2022/05/29 05:48:08;;;;;;;3.88;1.70;;;10.70;99.90;;;10.61;100.00;96808.78;5007750;28;20033;-44
2022/05/29 05:50:34;;;;;;;3.08;1.67;;;10.80;99.90;;;10.62;100.00;96804.38;5008187;28;20030;-44
2022/05/29 05:53:00;;;;;;;2.60;1.60;;;10.90;99.90;;;10.65;100.00;96810.34;5009216;28;20018;-43
2022/05/29 05:55:26;;;;;;;3.42;1.95;;;10.90;99.90;;;10.60;100.00;96806.22;5009471;28;20026;-43
2022/05/29 05:57:53;;;;;;;3.72;1.45;;;11.00;99.90;;;10.73;100.00;96814.41;5007892;28;20072;-45
2022/05/29 06:00:19;;;;;;;5.22;1.85;;;11.00;99.90;;;10.95;100.00;96817.75;5008024;28;20080;-45
2022/05/29 06:02:45;;;;;;;2.65;1.70;;;11.30;99.90;;;11.28;100.00;96809.13;5006966;28;20037;-43
2022/05/29 06:05:13;;;;;;;4.30;1.90;;;11.50;99.90;;;11.39;97.77;96801.53;5008234;28;20053;-45
2022/05/29 06:07:39;;;;;;;2.65;1.70;;;11.70;99.90;;;11.61;95.26;96806.59;5007901;28;20437;-43
2022/05/29 06:10:06;;;;;;;3.55;1.60;;;11.90;99.90;;;11.83;93.42;96806.34;5009178;28;20033;-43
2022/05/29 06:12:32;;;;;;;5.55;1.60;;;12.10;99.90;;;11.99;90.87;96809.09;5006337;28;20044;-44
2022/05/29 06:14:58;;;;;;;2.28;1.35;;;12.30;99.90;;;12.25;91.03;96806.84;5006916;28;20029;-46
2022/05/29 06:17:25;;;;;;;3.08;1.52;;;12.50;99.90;;;12.39;90.07;96808.78;5008720;28;20030;-44
2022/05/29 06:19:50;;;;;;;2.67;1.23;;;12.70;99.90;;;12.64;88.50;96821.53;5022863;28;20041;-49
2022/05/29 06:22:16;;;;;;;5.50;1.80;;;12.90;99.90;;;12.79;82.77;96820.69;5007720;28;20515;-49
2022/05/29 06:24:42;;;;;;;7.20;1.73;;;13.10;99.90;;;13.05;82.55;96826.31;5003513;28;20373;-47
2022/05/29 06:27:08;;;;;;;3.00;1.38;;;13.40;99.90;;;13.28;81.11;96821.50;5007465;28;20030;-46
2022/05/29 06:29:33;;;;;;;2.15;1.50;;;13.60;99.90;;;13.42;81.49;96818.97;5007005;28;20465;-46
2022/05/29 06:32:04;;;;;;;4.35;1.58;;;13.80;99.90;;;13.55;77.30;96827.06;5007810;28;20057;-46
2022/05/29 06:34:32;;;;;;;4.63;1.38;;;13.80;99.90;;;13.68;79.05;96819.25;5008440;28;20155;-48
2022/05/29 06:36:58;;;;;;;2.67;1.20;;;14.00;99.90;;;13.73;77.93;96817.19;5007459;28;20033;-44
2022/05/29 06:39:24;;;;;;;6.25;1.50;;;14.10;99.90;;;13.62;75.45;96830.19;5005446;28;20532;-46
2022/05/29 06:41:49;;;;;;;2.83;1.50;;;13.90;99.90;;;13.25;73.44;96827.00;5007890;28;20072;-48
2022/05/29 06:44:15;;;;;;;4.63;1.58;;;13.70;99.90;;;13.10;75.70;96826.94;5007123;28;20385;-46
2022/05/29 06:46:41;;;;;;;2.78;1.15;;;13.50;99.90;;;12.97;76.69;96825.88;5008066;28;20100;-48
2022/05/29 06:49:10;;;;;;;3.03;1.15;;;13.20;99.90;;;12.93;78.09;96827.84;5009445;28;20042;-47
2022/05/29 06:51:36;;;;;;;3.33;1.52;;;13.20;99.90;;;12.91;76.15;96827.09;5007728;28;20057;-46
2022/05/29 06:54:04;;;;;;;3.97;1.40;;;13.20;99.90;;;13.09;75.71;96830.50;5005711;28;20065;-44
2022/05/29 06:56:30;;;;;;;4.53;1.40;;;13.30;99.90;;;13.16;72.25;96831.03;5005851;28;20029;-45
2022/05/29 06:58:55;;;;;;;1.95;1.23;;;13.40;99.90;;;13.29;73.45;96832.03;5008042;28;20467;-43
2022/05/29 07:07:02;;;;;;;2.50;1.23;;;13.80;99.90;;;13.52;71.88;96843.13;5005368;28;20512;-46
2022/05/29 07:09:31;;;;;;;3.25;1.27;;;13.90;99.90;;;13.64;73.89;96830.97;5008450;28;20033;-43
2022/05/29 07:12:13;;;;;;;4.20;1.42;;;14.00;99.90;;;13.69;71.25;96842.16;5003739;28;20409;-43
2022/05/29 07:14:46;;;;;;;5.13;1.40;;;14.00;99.90;;;13.75;70.24;96833.84;5016128;28;20470;-44
2022/05/29 07:17:11;;;;;;;4.00;1.10;;;14.10;99.90;;;13.89;68.90;96839.19;5004332;28;20031;-43
2022/05/29 07:19:38;;;;;;;2.58;1.20;;;14.20;99.90;;;14.02;65.80;96839.31;5004529;28;20527;-44
2022/05/29 07:22:04;;;;;;;2.42;1.10;;;14.40;99.90;;;14.17;69.25;96845.47;5004630;28;20038;-45
2022/05/29 07:24:34;;;;;;;3.45;1.20;;;14.60;99.90;;;14.28;70.14;96836.88;5005613;28;20235;-44
2022/05/29 07:27:00;;;;;;;2.00;1.10;;;14.70;99.90;;;14.47;67.25;96833.97;5004277;28;20643;-43
2022/05/29 07:29:26;;;;;;;3.28;1.40;;;14.90;99.90;;;14.59;68.41;96840.31;5007887;28;20180;-44
2022/05/29 07:31:54;;;;;;;5.35;1.25;;;14.90;99.90;;;14.68;65.98;96845.94;5008840;28;20506;-43
2022/05/29 07:34:20;;;;;;;4.72;1.15;;;15.00;99.90;;;14.61;67.50;96841.13;5008777;28;20029;-42
2022/05/29 07:36:49;;;;;;;4.50;1.70;;;15.00;99.90;;;14.56;67.02;96843.16;5006191;28;20045;-44
2022/05/29 07:39:15;;;;;;;3.38;1.50;;;15.00;99.90;;;14.45;64.00;96846.47;5010691;28;20065;-44
2022/05/29 07:44:25;;;;;;;4.13;1.48;;;14.80;99.90;;;14.40;65.73;96848.56;5010194;28;20104;-43
2022/05/29 07:46:51;;;;;;;4.60;1.30;;;14.80;99.90;;;14.40;66.80;96848.56;5007607;28;20033;-43
2022/05/29 07:49:17;;;;;;;8.30;1.48;;;14.80;99.90;;;14.43;65.42;96843.06;5005771;28;20120;-43
2022/05/29 07:51:42;;;;;;;2.45;1.27;;;14.90;99.90;;;14.56;63.49;96849.31;5010757;28;20081;-44
2022/05/29 07:54:08;;;;;;;6.22;1.40;;;15.00;99.90;;;14.55;64.22;96854.72;5009824;28;20032;-46
2022/05/29 07:56:34;;;;;;;2.38;1.38;;;15.00;99.90;;;14.61;62.32;96854.38;5011616;28;20778;-43
2022/05/29 07:59:00;;;;;;;5.18;1.30;;;15.10;99.90;;;14.62;61.01;96856.91;5009212;28;20033;-43
2022/05/29 08:01:26;;;;;;;3.60;1.20;;;15.00;99.90;;;14.41;61.19;96864.38;5011919;28;20488;-43
2022/05/29 08:03:51;;;;;;;5.18;1.40;;;14.90;99.90;;;14.24;64.82;96864.53;5003271;28;20034;-43
2022/05/29 08:06:17;;;;;;;10.07;1.38;;;14.70;99.90;;;14.05;64.63;96867.44;5008820;28;20409;-43
2022/05/29 08:08:43;;;;;;;6.97;1.60;;;14.60;99.90;;;13.69;63.62;96864.22;5005834;28;20068;-43
2022/05/29 08:11:09;;;;;;;5.50;1.58;;;14.40;99.90;;;13.70;66.56;96875.66;5009103;28;20054;-44
2022/05/29 08:13:35;;;;;;;4.78;1.40;;;14.20;99.90;;;13.63;68.48;96867.22;5008787;28;20076;-47
2022/05/29 08:16:02;;;;;;;6.53;1.77;;;14.20;99.90;;;13.59;65.96;96868.34;5009948;28;20026;-46
2022/05/29 08:18:28;;;;;;;4.47;1.42;;;14.10;99.90;;;13.69;66.82;96873.94;5007375;28;20030;-45
2022/05/29 08:20:55;;;;;;;6.78;1.75;;;14.20;99.90;;;13.70;64.63;96878.31;5008505;28;20083;-46
2022/05/29 08:23:21;;;;;;;3.67;1.50;;;14.30;99.90;;;13.69;66.61;96871.28;5011362;28;20117;-44
2022/05/29 08:31:13;;;;;;;8.82;1.95;;;14.70;99.90;;;14.55;62.53;96860.03;5011289;28;20041;-45
2022/05/29 08:33:41;;;;;;;4.57;1.67;;;15.00;99.90;;;14.67;61.88;96860.13;5010026;28;20080;-44
2022/05/29 08:36:16;;;;;;;5.85;1.70;;;15.30;99.90;;;14.91;63.85;96867.50;5006714;28;20029;-48
2022/05/29 08:38:45;;;;;;;3.42;1.27;;;15.40;99.90;;;14.63;61.85;96847.19;5009801;28;20048;-45
2022/05/29 08:41:21;;;;;;;5.18;1.60;;;15.40;99.90;;;14.42;60.20;96870.53;5010063;28;20103;-45
2022/05/29 08:44:10;;;;;;;6.15;1.88;;;15.20;99.80;;;14.03;64.40;96869.31;5008036;28;20485;-44
2022/05/29 08:46:42;;;;;;;4.38;1.90;;;14.90;99.90;;;13.75;64.35;96882.41;5006776;28;20032;-43
2022/05/29 08:49:18;;;;;;;6.95;1.52;;;14.50;99.90;;;13.31;68.65;96882.28;5012002;28;20029;-47
2022/05/29 08:52:10;;;;;;;6.05;1.60;;;14.10;99.90;;;12.79;69.67;96873.63;5007332;28;20045;-42
2022/05/29 08:54:42;;;;;;;8.45;1.90;;;13.70;99.90;;;12.61;71.39;96871.94;5010129;28;20052;-43
2022/05/29 08:57:22;;;;;;;4.47;1.50;;;13.30;99.90;;;12.48;74.28;96873.53;5006361;28;20056;-42
2022/05/29 08:59:57;;;;;;;5.47;1.52;;;13.10;99.90;;;12.44;74.61;96870.22;5008514;28;20458;-42
2022/05/29 09:03:03;;;;;;;3.33;1.42;;;13.00;99.90;;;12.47;74.00;96855.97;5005972;28;20025;-48
2022/05/29 09:05:47;;;;;;;5.53;1.88;;;13.00;99.90;;;12.57;75.68;96858.03;5006668;28;20112;-43
2022/05/29 09:08:32;;;;;;;8.38;1.70;;;13.10;99.90;;;12.73;75.76;96862.50;5022250;28;20038;-42
2022/05/29 09:11:18;;;;;;;7.32;2.35;;;13.20;99.90;;;12.97;76.68;96863.81;5023307;28;20528;-43
2022/05/29 09:13:56;;;;;;;7.22;1.73;;;13.50;99.90;;;13.13;77.51;96868.25;5007213;28;20037;-43
2022/05/29 09:16:25;;;;;;;5.60;1.50;;;13.60;99.90;;;13.16;76.79;96863.63;5005867;28;20072;-42
2022/05/29 09:19:10;;;;;;;4.55;1.83;;;13.70;99.90;;;13.18;73.59;96853.81;5004721;28;20129;-43
2022/05/29 09:21:54;;;;;;;6.80;1.75;;;13.80;99.90;;;13.24;75.09;96860.53;5005797;28;20520;-44
2022/05/29 09:24:41;;;;;;;6.15;1.95;;;13.90;99.90;;;13.45;75.47;96852.38;5008549;28;20563;-42
2022/05/29 09:27:09;;;;;;;7.70;1.92;;;14.00;99.90;;;13.60;75.71;96858.56;5009541;28;20033;-42
2022/05/29 09:29:36;;;;;;;5.75;1.83;;;14.10;99.90;;;13.75;73.53;96858.53;5006608;28;20033;-42
2022/05/29 09:32:04;;;;;;;9.45;2.20;;;14.30;99.90;;;13.92;72.88;96849.59;5007844;28;20490;-43
2022/05/29 09:34:31;;;;;;;4.65;1.58;;;14.40;99.90;;;14.16;73.29;96846.44;5007644;28;20481;-42
2022/05/29 09:37:08;;;;;;;6.03;1.60;;;14.60;99.90;;;14.40;71.09;96848.56;5008227;28;20030;-42
2022/05/29 09:39:45;;;;;;;7.30;1.75;;;15.00;99.90;;;14.92;69.42;96841.84;5005479;28;20030;-42
2022/05/29 09:42:31;;;;;;;8.05;1.60;;;15.40;99.90;;;15.14;67.23;96855.44;5007038;28;20033;-43
2022/05/29 09:45:17;;;;;;;5.75;1.85;;;15.80;99.90;;;15.30;65.86;96849.16;5006327;28;20052;-43
2022/05/29 09:50:55;;;;;;;10.95;1.92;;;16.20;99.90;;;15.91;65.32;96858.41;5007694;28;20037;-43
2022/05/29 09:53:29;;;;;;;6.50;1.52;;;16.40;99.90;;;16.22;65.34;96856.34;5004915;28;20535;-42
2022/05/29 09:56:08;;;;;;;8.93;1.75;;;16.70;99.90;;;16.37;64.79;96860.63;5004589;28;20041;-43
2022/05/29 09:58:46;;;;;;;7.38;1.77;;;17.00;99.90;;;16.52;58.84;96858.69;5005155;28;20030;-42
2022/05/29 10:01:12;;;;;;;4.00;1.50;;;17.20;99.90;;;16.71;59.60;96852.09;5005239;28;20064;-43
2022/05/29 10:03:49;;;;;;;4.38;1.83;;;17.40;99.90;;;17.01;54.34;96865.06;5006659;28;20080;-42
2022/05/29 10:06:37;;;;;;;2.65;1.30;;;17.70;98.30;;;17.15;53.70;96864.09;5008132;28;20017;-43
2022/05/29 10:09:22;;;;;;;6.72;1.80;;;17.90;97.20;;;17.05;52.25;96868.34;5007684;28;20030;-42
2022/05/29 10:11:56;;;;;;;4.15;1.30;;;17.90;96.50;;;16.92;54.79;96865.72;5006921;28;20029;-43
2022/05/29 10:14:42;;;;;;;8.18;1.67;;;17.60;96.90;;;16.38;51.77;96866.78;5008073;28;20049;-42
2022/05/29 10:17:27;;;;;;;6.95;1.70;;;17.40;94.70;;;16.18;51.02;96865.50;5004681;28;20064;-42
2022/05/29 10:19:53;;;;;;;7.63;1.73;;;17.00;94.70;;;16.25;53.71;96855.28;5003056;28;20025;-42
2022/05/29 10:22:31;;;;;;;5.45;1.40;;;17.00;96.00;;;16.32;53.98;96861.91;5010006;28;20393;-43
2022/05/29 10:24:58;;;;;;;4.45;1.60;;;17.10;96.00;;;16.07;55.72;96847.59;5015315;28;20144;-42
2022/05/29 10:27:35;;;;;;;3.15;1.35;;;17.00;95.60;;;15.80;54.35;96859.13;5004195;28;20066;-43
2022/05/29 10:30:10;;;;;;;3.13;1.30;;;16.80;95.70;;;15.46;55.29;96852.50;5007124;28;20073;-43
2022/05/29 10:32:38;;;;;;;3.45;1.40;;;16.40;95.70;;;15.31;57.18;96856.16;5023136;28;20123;-43
2022/05/29 10:35:28;;;;;;;7.50;1.70;;;16.20;96.50;;;14.72;61.29;96866.97;5022468;28;20018;-43
2022/05/29 10:37:55;;;;;;;8.55;1.90;;;15.70;97.80;;;14.31;62.99;96864.06;5007107;28;20293;-43
2022/05/29 10:40:31;;;;;;;4.45;1.65;;;15.20;98.50;;;13.84;67.55;96857.16;5008953;28;20026;-42
2022/05/29 10:43:03;;;;;;;5.32;1.70;;;14.90;99.90;;;13.49;68.78;96868.00;5002463;28;20371;-44
2022/05/29 10:45:46;;;;;;;4.18;1.65;;;14.50;99.90;;;13.22;71.07;96869.53;5003422;28;20027;-42
2022/05/29 10:48:26;;;;;;;;;;;14.10;99.90;;;12.95;71.13;96878.06;5008283;28;20428;-44
2022/05/29 10:51:01;;;;;;;3.90;1.70;;;13.80;99.90;;;13.02;73.72;96865.34;5007732;28;20032;-42
2022/05/29 10:54:00;;;;;;;6.95;1.75;;;13.70;99.90;;;12.91;71.62;96873.88;5008617;28;20107;-43
2022/05/29 10:56:41;;;;;;;7.50;1.50;;;13.60;99.90;;;12.49;72.38;96883.16;5007963;28;20105;-43
2022/05/29 10:59:52;;;;;;;7.05;1.45;;;13.30;99.90;;;12.41;74.20;96871.22;5010179;28;20030;-42
2022/05/29 11:06:12;;;;;;;3.45;1.30;;;13.00;99.90;;;12.41;72.31;96865.91;5007684;28;20045;-43
2022/05/29 11:08:47;;;;;;;;;;;13.10;99.90;;;12.65;72.29;96870.88;5009950;28;20453;-42
2022/05/29 11:11:26;;;;;;;3.60;1.20;;;13.20;99.90;;;12.85;68.12;96866.25;5009478;28;20377;-42
2022/05/29 11:14:19;;;;;;;3.72;1.45;;;13.50;99.90;;;13.04;65.85;96866.97;5009791;28;20057;-42
2022/05/29 11:16:58;;;;;;;3.35;1.20;;;13.80;99.90;;;13.40;66.13;96865.88;5006282;28;20071;-42